.
WxDataArchive / Data Records for 2007-12-09
2007-12-08 December 2007 2007-12-10

Data Records for Sunday, 09 December 2007

Time	Temp	Chill	HIndex	Humid	Dewpt	 Wind 	HiWind	WindDir	Rain 	Barom 
-----	----	-----	------	-----	-----	------	------	-------	-----	----- 
00:00	29.4	29.4	29.4	77	23.1	0	2	90	0.00	30.356 
00:05	29.3	29.3	29.3	77	23.0	2	4	112	0.00	30.354 
00:10	29.3	29.3	29.3	76	22.7	2	4	112	0.00	30.352 
00:15	29.3	29.3	29.3	76	22.7	2	6	112	0.00	30.350 
00:20	29.3	29.3	29.3	76	22.7	3	7	112	0.00	30.350 
00:25	29.3	29.3	29.3	76	22.7	1	3	112	0.00	30.349 
00:30	29.1	29.1	29.1	76	22.5	1	7	112	0.00	30.347 
00:35	29.1	29.1	29.1	76	22.5	1	3	22	0.00	30.351 
00:40	29.1	29.1	29.1	77	22.8	1	7	135	0.00	30.359 
00:45	29.0	29.0	29.0	76	22.4	1	3	68	0.00	30.357 
00:50	29.0	29.0	29.0	77	22.7	1	6	112	0.00	30.350 
00:55	29.0	29.0	29.0	75	22.1	2	4	112	0.00	30.349 
01:00	28.8	28.8	28.8	75	21.9	2	7	90	0.00	30.348 
01:05	28.7	28.7	28.7	75	21.8	2	5	112	0.00	30.349 
01:10	28.7	28.7	28.7	74	21.5	2	7	112	0.00	30.347 
01:15	28.7	28.7	28.7	74	21.5	3	7	112	0.00	30.348 
01:20	28.5	23.0	28.5	73	21.0	5	9	90	0.00	30.329 
01:25	28.5	28.5	28.5	73	21.0	2	10	90	0.00	30.344 
01:30	28.5	28.5	28.5	73	21.0	3	9	90	0.00	30.350 
01:35	28.5	28.5	28.5	74	21.3	1	5	112	0.00	30.350 
01:40	28.5	28.5	28.5	74	21.3	2	4	90	0.00	30.349 
01:45	28.4	28.4	28.4	74	21.2	2	6	90	0.00	30.344 
01:50	28.4	28.4	28.4	73	20.9	3	6	90	0.00	30.347 
01:55	28.4	28.4	28.4	74	21.2	2	5	90	0.00	30.347 
02:00	28.4	28.4	28.4	74	21.2	2	4	112	0.00	30.344 
02:05	28.4	28.4	28.4	74	21.2	2	7	90	0.00	30.339 
02:10	28.2	28.2	28.2	74	21.0	2	6	112	0.00	30.347 
02:15	28.2	28.2	28.2	74	21.0	1	4	45	0.00	30.351 
02:20	28.2	28.2	28.2	75	21.3	1	4	68	0.00	30.362 
02:25	28.2	28.2	28.2	75	21.3	0	2	68	0.00	30.375 
02:30	28.2	28.2	28.2	74	21.0	0	2	68	0.00	30.380 
02:35	28.2	28.2	28.2	74	21.0	1	3	45	0.00	30.381 
02:40	28.2	28.2	28.2	74	21.0	1	2	45	0.00	30.372 
02:45	28.2	28.2	28.2	74	21.0	2	6	90	0.00	30.364 
02:50	28.2	28.2	28.2	73	20.7	1	5	90	0.00	30.366 
02:55	28.2	28.2	28.2	73	20.7	2	7	90	0.00	30.365 
03:00	28.2	28.2	28.2	73	20.7	3	10	90	0.00	30.353 
03:05	28.2	28.2	28.2	74	21.0	2	6	90	0.00	30.351 
03:10	28.2	28.2	28.2	74	21.0	3	7	90	0.00	30.351 
03:15	28.2	28.2	28.2	74	21.0	3	11	112	0.00	30.348 
03:20	28.2	28.2	28.2	75	21.3	2	6	90	0.00	30.346 
03:25	28.2	28.2	28.2	75	21.3	2	6	90	0.00	30.351 
03:30	28.2	28.2	28.2	76	21.6	1	7	90	0.00	30.349 
03:35	28.2	28.2	28.2	76	21.6	2	5	112	0.00	30.347 
03:40	28.2	28.2	28.2	76	21.6	2	7	112	0.00	30.346 
03:45	28.1	28.1	28.1	76	21.5	2	6	90	0.00	30.336 
03:50	28.1	28.1	28.1	76	21.5	2	6	112	0.00	30.336 
03:55	28.1	28.1	28.1	76	21.5	3	6	112	0.00	30.332 
04:00	27.9	22.3	27.9	76	21.3	5	11	90	0.00	30.318 
04:05	27.9	27.9	27.9	77	21.6	3	7	90	0.00	30.318 
04:10	27.9	27.9	27.9	77	21.6	2	6	112	0.00	30.319 
04:15	27.9	27.9	27.9	77	21.6	3	8	112	0.00	30.320 
04:20	27.9	27.9	27.9	77	21.6	3	5	112	0.00	30.319 
04:25	27.9	27.9	27.9	77	21.6	3	7	90	0.00	30.314 
04:30	27.9	27.9	27.9	77	21.6	2	5	90	0.00	30.317 
04:35	27.9	27.9	27.9	78	21.9	2	4	90	0.00	30.317 
04:40	27.9	27.9	27.9	78	21.9	1	3	90	0.00	30.329 
04:45	27.9	27.9	27.9	78	21.9	1	5	90	0.00	30.331 
04:50	27.9	27.9	27.9	78	21.9	1	3	68	0.00	30.320 
04:55	27.9	27.9	27.9	78	21.9	2	4	112	0.00	30.309 
05:00	27.8	27.8	27.8	79	22.2	1	5	90	0.00	30.315 
05:05	27.8	27.8	27.8	79	22.2	1	4	68	0.00	30.321 
05:10	27.8	27.8	27.8	79	22.2	2	6	90	0.00	30.317 
05:15	27.8	27.8	27.8	79	22.2	1	5	112	0.00	30.317 
05:20	27.8	27.8	27.8	79	22.2	1	5	112	0.00	30.328 
05:25	27.8	27.8	27.8	79	22.2	1	6	112	0.00	30.317 
05:30	27.8	27.8	27.8	80	22.4	2	7	112	0.00	30.313 
05:35	27.9	27.9	27.9	81	22.8	2	6	112	0.00	30.315 
05:40	27.9	27.9	27.9	81	22.8	2	5	90	0.00	30.314 
05:45	27.9	27.9	27.9	81	22.8	1	4	112	0.00	30.321 
05:50	27.9	27.9	27.9	82	23.1	0	3	90	0.00	30.334 
05:55	27.9	27.9	27.9	82	23.1	0	2	158	0.00	30.349 
06:00	27.9	27.9	27.9	82	23.1	1	4	112	0.00	30.327 
06:05	28.1	28.1	28.1	83	23.6	1	3	112	0.00	30.329 
06:10	28.1	28.1	28.1	83	23.6	2	4	90	0.00	30.317 
06:15	27.9	27.9	27.9	83	23.4	2	5	90	0.00	30.313 
06:20	27.9	27.9	27.9	84	23.7	2	5	112	0.00	30.310 
06:25	27.9	27.9	27.9	84	23.7	1	5	112	0.00	30.307 
06:30	27.9	27.9	27.9	84	23.7	2	6	112	0.00	30.303 
06:35	27.9	27.9	27.9	84	23.7	2	8	112	0.00	30.303 
06:40	27.9	27.9	27.9	84	23.7	2	7	112	0.00	30.298 
06:45	27.9	27.9	27.9	85	24.0	3	6	112	0.00	30.302 
06:50	27.9	27.9	27.9	85	24.0	2	5	112	0.00	30.305 
06:55	27.9	27.9	27.9	85	24.0	2	5	112	0.00	30.306 
07:00	27.9	27.9	27.9	85	24.0	3	9	112	0.00	30.302 
07:05	27.9	27.9	27.9	86	24.3	3	9	90	0.00	30.287 
07:10	27.9	27.9	27.9	86	24.3	2	6	90	0.00	30.296 
07:15	27.9	27.9	27.9	86	24.3	1	6	112	0.00	30.306 
07:20	28.1	28.1	28.1	86	24.5	2	6	90	0.00	30.303 
07:25	28.1	28.1	28.1	86	24.5	2	9	90	0.00	30.303 
07:30	28.1	28.1	28.1	86	24.5	2	7	90	0.00	30.301 
07:35	28.1	28.1	28.1	86	24.5	3	7	112	0.00	30.288 
07:40	28.1	23.6	28.1	86	24.5	4	11	112	0.00	30.294 
07:45	28.1	28.1	28.1	86	24.5	2	7	90	0.00	30.310 
07:50	28.1	28.1	28.1	87	24.7	2	4	90	0.00	30.314 
07:55	28.1	28.1	28.1	87	24.7	2	5	112	0.00	30.304 
08:00	28.1	28.1	28.1	87	24.7	2	10	112	0.00	30.291 
08:05	28.1	23.6	28.1	87	24.7	4	7	112	0.00	30.299 
08:10	28.1	28.1	28.1	87	24.7	1	5	90	0.00	30.296 
08:15	28.1	28.1	28.1	88	25.0	2	7	112	0.00	30.303 
08:20	28.1	28.1	28.1	88	25.0	2	7	90	0.00	30.302 
08:25	28.1	28.1	28.1	88	25.0	3	9	112	0.00	30.291 
08:30	27.9	27.9	27.9	88	24.8	2	7	112	0.00	30.289 
08:35	27.9	27.9	27.9	88	24.8	3	8	112	0.00	30.294 
08:40	27.9	27.9	27.9	88	24.8	1	3	112	0.00	30.301 
08:45	27.9	27.9	27.9	88	24.8	2	6	112	0.00	30.300 
08:50	27.9	27.9	27.9	88	24.8	3	7	112	0.00	30.297 
08:55	27.9	27.9	27.9	88	24.8	2	10	90	0.00	30.301 
09:00	27.9	27.9	27.9	89	25.1	2	6	112	0.00	30.316 
09:05	28.1	28.1	28.1	89	25.3	1	3	0	0.00	30.334 
09:10	28.2	28.2	28.2	90	25.7	1	3	135	0.00	30.332 
09:15	28.4	28.4	28.4	90	25.8	3	6	112	0.00	30.303 
09:20	28.4	28.4	28.4	90	25.8	3	10	112	0.00	30.305 
09:25	28.4	28.4	28.4	91	26.1	2	6	90	0.00	30.318 
09:30	28.5	28.5	28.5	91	26.2	1	4	112	0.00	30.349 
09:35	28.5	28.5	28.5	91	26.2	2	4	112	0.00	30.324 
09:40	28.5	28.5	28.5	91	26.2	3	6	90	0.00	30.338 
09:45	28.7	28.7	28.7	91	26.4	1	4	90	0.00	30.337 
09:50	28.7	28.7	28.7	91	26.4	1	6	90	0.00	30.333 
09:55	28.8	28.8	28.8	92	26.8	1	4	135	0.00	30.332 
10:00	29.0	29.0	29.0	92	27.0	2	5	90	0.00	30.318 
10:05	29.0	29.0	29.0	92	27.0	1	3	112	0.00	30.318 
10:10	29.1	29.1	29.1	92	27.1	2	4	90	0.00	30.314 
10:15	29.1	29.1	29.1	92	27.1	2	4	90	0.00	30.304 
10:20	29.0	24.6	29.0	92	27.0	4	7	112	0.00	30.298 
10:25	29.1	29.1	29.1	92	27.1	3	7	90	0.00	30.287 
10:30	29.1	29.1	29.1	92	27.1	3	5	90	0.00	30.288 
10:35	29.1	29.1	29.1	92	27.1	3	6	112	0.00	30.295 
10:40	29.1	29.1	29.1	92	27.1	2	6	90	0.00	30.298 
10:45	29.0	29.0	29.0	92	27.0	3	9	112	0.00	30.287 
10:50	29.1	29.1	29.1	92	27.1	2	6	112	0.00	30.291 
10:55	29.1	29.1	29.1	92	27.1	1	6	112	0.00	30.306 
11:00	29.3	29.3	29.3	92	27.3	1	5	112	0.00	30.304 
11:05	29.4	29.4	29.4	92	27.4	1	4	112	0.00	30.300 
11:10	29.4	29.4	29.4	92	27.4	1	4	112	0.00	30.303 
11:15	29.4	29.4	29.4	92	27.4	3	7	112	0.00	30.292 
11:20	29.4	29.4	29.4	92	27.4	2	6	112	0.00	30.296 
11:25	29.4	29.4	29.4	92	27.4	1	3	45	0.00	30.303 
11:30	29.5	29.5	29.5	92	27.5	2	4	112	0.00	30.294 
11:35	29.7	29.7	29.7	92	27.7	0	3	68	0.00	30.304 
11:40	29.7	29.7	29.7	92	27.7	0	2	112	0.00	30.303 
11:45	29.7	29.7	29.7	92	27.7	1	4	90	0.00	30.296 
11:50	29.8	29.8	29.8	92	27.8	1	2	112	0.00	30.288 
11:55	29.8	29.8	29.8	92	27.8	1	5	90	0.00	30.272 
12:00	29.7	29.7	29.7	92	27.7	2	5	112	0.00	30.269 
12:05	29.7	29.7	29.7	92	27.7	1	5	112	0.00	30.266 
12:10	29.8	29.8	29.8	92	27.8	1	4	112	0.00	30.275 
12:15	29.8	29.8	29.8	92	27.8	1	4	112	0.00	30.281 
12:20	29.8	29.8	29.8	92	27.8	1	5	112	0.00	30.270 
12:25	29.8	29.8	29.8	92	27.8	1	4	112	0.00	30.267 
12:30	29.8	29.8	29.8	92	27.8	1	4	112	0.00	30.275 
12:35	30.0	30.0	30.0	92	28.0	0	2	112	0.00	30.285 
12:40	30.0	30.0	30.0	92	28.0	1	2	112	0.00	30.283 
12:45	30.1	30.1	30.1	92	28.1	1	5	112	0.00	30.273 
12:50	30.1	30.1	30.1	92	28.1	1	3	112	0.00	30.261 
12:55	30.1	30.1	30.1	92	28.1	1	3	112	0.00	30.252 
13:00	30.0	30.0	30.0	92	28.0	2	5	112	0.00	30.241 
13:05	30.0	30.0	30.0	92	28.0	3	6	112	0.00	30.232 
13:10	29.8	29.8	29.8	92	27.8	3	9	112	0.00	30.223 
13:15	29.8	29.8	29.8	92	27.8	3	6	112	0.00	30.209 
13:20	29.8	29.8	29.8	92	27.8	3	5	112	0.00	30.191 
13:25	29.8	29.8	29.8	92	27.8	3	6	112	0.00	30.188 
13:30	29.8	29.8	29.8	93	28.0	3	7	112	0.00	30.180 
13:35	30.0	30.0	30.0	93	28.2	1	3	112	0.00	30.187 
13:40	30.0	30.0	30.0	93	28.2	0	0	---	0.00	30.225 
13:45	30.1	30.1	30.1	93	28.3	0	0	---	0.00	30.240 
13:50	30.1	30.1	30.1	93	28.3	0	0	---	0.00	30.239 
13:55	30.3	30.3	30.3	93	28.5	0	0	---	0.00	30.252 
14:00	30.3	30.3	30.3	93	28.5	0	0	---	0.00	30.247 
14:05	30.3	30.3	30.3	93	28.5	0	0	---	0.00	30.224 
14:10	30.4	30.4	30.4	93	28.6	0	0	---	0.00	30.222 
14:15	30.4	30.4	30.4	93	28.6	0	0	---	0.00	30.214 
14:20	30.4	30.4	30.4	93	28.6	0	0	---	0.00	30.196 
14:25	30.6	30.6	30.6	93	28.8	0	0	---	0.00	30.218 
14:30	30.6	30.6	30.6	93	28.8	0	0	---	0.00	30.217 
14:35	30.6	30.6	30.6	93	28.8	0	0	---	0.00	30.216 
14:40	30.6	30.6	30.6	92	28.6	0	0	---	0.00	30.222 
14:45	30.4	30.4	30.4	92	28.4	0	0	---	0.00	30.220 
14:50	30.6	30.6	30.6	92	28.6	0	0	---	0.00	30.221 
14:55	30.6	30.6	30.6	92	28.6	0	0	---	0.00	30.216 
15:00	30.6	30.6	30.6	92	28.6	0	0	---	0.00	30.210 
15:05	30.4	30.4	30.4	92	28.4	0	0	---	0.00	30.208 
15:10	30.4	30.4	30.4	92	28.4	0	0	---	0.00	30.207 
15:15	30.4	30.4	30.4	92	28.4	0	0	---	0.00	30.213 
15:20	30.6	30.6	30.6	92	28.6	0	0	---	0.00	30.211 
15:25	30.6	30.6	30.6	92	28.6	0	0	---	0.00	30.213 
15:30	30.6	30.6	30.6	92	28.6	0	0	---	0.00	30.194 
15:35	30.6	30.6	30.6	92	28.6	0	0	---	0.00	30.202 
15:40	30.4	30.4	30.4	92	28.4	0	0	---	0.00	30.205 
15:45	30.4	30.4	30.4	92	28.4	0	0	---	0.00	30.189 
15:50	30.3	30.3	30.3	92	28.3	0	0	---	0.00	30.179 
15:55	30.3	30.3	30.3	92	28.3	0	0	---	0.00	30.191 
16:00	30.4	30.4	30.4	92	28.4	0	0	---	0.00	30.197 
16:05	30.4	30.4	30.4	92	28.4	0	0	---	0.00	30.204 
16:10	30.3	30.3	30.3	92	28.3	0	0	---	0.00	30.192 
16:15	30.3	30.3	30.3	92	28.3	0	0	---	0.00	30.206 
16:20	30.3	30.3	30.3	92	28.3	0	0	---	0.00	30.208 
16:25	30.3	30.3	30.3	92	28.3	0	0	---	0.00	30.210 
16:30	30.4	30.4	30.4	93	28.6	0	0	---	0.00	30.214 
16:35	30.3	30.3	30.3	92	28.3	0	0	---	0.00	30.221 
16:40	30.3	30.3	30.3	92	28.3	0	0	---	0.00	30.222 
16:45	30.3	30.3	30.3	92	28.3	0	0	---	0.00	30.220 
16:50	30.3	30.3	30.3	92	28.3	0	0	---	0.00	30.221 
16:55	30.4	30.4	30.4	92	28.4	0	0	---	0.00	30.218 
17:00	30.4	30.4	30.4	93	28.6	0	0	---	0.00	30.212 
17:05	30.4	30.4	30.4	93	28.6	0	0	---	0.00	30.209 
17:10	30.4	30.4	30.4	93	28.6	0	0	---	0.00	30.209 
17:15	30.4	30.4	30.4	93	28.6	0	0	---	0.00	30.213 
17:20	30.3	30.3	30.3	93	28.5	0	0	---	0.00	30.216 
17:25	30.3	30.3	30.3	93	28.5	0	0	---	0.00	30.223 
17:30	30.3	30.3	30.3	93	28.5	0	0	---	0.00	30.224 
17:35	30.3	30.3	30.3	93	28.5	0	0	---	0.00	30.225 
17:40	30.3	30.3	30.3	93	28.5	0	0	---	0.00	30.231 
17:45	30.4	30.4	30.4	93	28.6	0	0	---	0.00	30.229 
17:50	30.3	30.3	30.3	93	28.5	0	0	---	0.00	30.236 
17:55	30.3	30.3	30.3	93	28.5	0	0	---	0.00	30.239 
18:00	30.3	30.3	30.3	93	28.5	0	0	---	0.00	30.231 
18:05	30.3	30.3	30.3	93	28.5	0	0	---	0.00	30.227 
18:10	30.1	30.1	30.1	93	28.3	0	0	---	0.00	30.225 
18:15	30.1	30.1	30.1	93	28.3	0	0	---	0.00	30.217 
18:20	30.1	30.1	30.1	93	28.3	0	0	---	0.00	30.204 
18:25	30.0	30.0	30.0	94	28.5	0	0	---	0.00	30.203 
18:30	30.0	30.0	30.0	94	28.5	0	0	---	0.00	30.223 
18:35	30.0	30.0	30.0	94	28.5	0	0	---	0.00	30.224 
18:40	30.0	30.0	30.0	94	28.5	0	0	---	0.00	30.226 
18:45	30.0	30.0	30.0	94	28.5	0	0	---	0.00	30.219 
18:50	30.0	30.0	30.0	94	28.5	0	0	---	0.00	30.225 
18:55	30.0	30.0	30.0	94	28.5	0	0	---	0.00	30.235 
19:00	30.0	30.0	30.0	94	28.5	0	0	---	0.00	30.236 
19:05	30.0	30.0	30.0	94	28.5	0	0	---	0.00	30.224 
19:10	29.8	29.8	29.8	94	28.3	0	0	---	0.00	30.229 
19:15	29.8	29.8	29.8	94	28.3	0	0	---	0.00	30.234 
19:20	29.7	29.7	29.7	94	28.2	0	0	---	0.00	30.235 
19:25	29.7	29.7	29.7	94	28.2	0	0	---	0.00	30.222 
19:30	29.7	29.7	29.7	94	28.2	0	0	---	0.00	30.221 
19:35	29.7	29.7	29.7	94	28.2	0	0	---	0.00	30.221 
19:40	29.7	29.7	29.7	94	28.2	0	0	---	0.00	30.223 
19:45	29.7	29.7	29.7	94	28.2	0	0	---	0.00	30.224 
19:50	29.7	29.7	29.7	94	28.2	0	0	---	0.00	30.238 
19:55	29.7	29.7	29.7	94	28.2	0	0	---	0.00	30.227 
20:00	29.7	29.7	29.7	94	28.2	0	0	---	0.00	30.228 
20:05	29.7	29.7	29.7	94	28.2	0	0	---	0.00	30.227 
20:10	29.7	29.7	29.7	94	28.2	0	0	---	0.00	30.222 
20:15	29.5	29.5	29.5	94	28.0	0	0	---	0.00	30.232 
20:20	29.5	29.5	29.5	94	28.0	0	0	---	0.00	30.235 
20:25	29.4	29.4	29.4	94	27.9	0	0	---	0.00	30.226 
20:30	29.4	29.4	29.4	94	27.9	0	0	---	0.00	30.214 
20:35	29.4	29.4	29.4	94	27.9	0	0	---	0.00	30.209 
20:40	29.4	29.4	29.4	94	27.9	0	0	---	0.00	30.198 
20:45	29.3	29.3	29.3	94	27.8	0	0	---	0.00	30.193 
20:50	29.4	29.4	29.4	94	27.9	0	0	---	0.00	30.218 
20:55	29.4	29.4	29.4	95	28.1	0	0	---	0.00	30.212 
21:00	29.4	29.4	29.4	95	28.1	0	0	---	0.00	30.210 
21:05	29.4	29.4	29.4	95	28.1	0	0	---	0.00	30.211 
21:10	29.4	29.4	29.4	95	28.1	0	0	---	0.00	30.215 
21:15	29.4	29.4	29.4	95	28.1	0	0	---	0.00	30.216 
21:20	29.4	29.4	29.4	95	28.1	0	0	---	0.00	30.220 
21:25	29.4	29.4	29.4	95	28.1	0	0	---	0.00	30.225 
21:30	29.4	29.4	29.4	95	28.1	0	0	---	0.00	30.226 
21:35	29.4	29.4	29.4	95	28.1	0	0	---	0.00	30.222 
21:40	29.4	29.4	29.4	95	28.1	0	0	---	0.00	30.227 
21:45	29.4	29.4	29.4	95	28.1	0	0	---	0.00	30.231 
21:50	29.4	29.4	29.4	95	28.1	0	0	---	0.00	30.235 
21:55	29.5	29.5	29.5	95	28.2	0	0	---	0.00	30.226 
22:00	29.5	29.5	29.5	95	28.2	0	0	---	0.00	30.235 
22:05	29.5	29.5	29.5	95	28.2	0	0	---	0.00	30.239 
22:10	29.5	29.5	29.5	95	28.2	0	0	---	0.00	30.242 
22:15	29.5	29.5	29.5	95	28.2	0	0	---	0.00	30.241 
22:20	29.4	29.4	29.4	95	28.1	0	0	---	0.00	30.240 
22:25	29.4	29.4	29.4	95	28.1	0	0	---	0.00	30.234 
22:30	29.4	29.4	29.4	95	28.1	0	0	---	0.00	30.231 
22:35	29.5	29.5	29.5	95	28.2	0	0	---	0.00	30.227 
22:40	29.5	29.5	29.5	95	28.2	0	0	---	0.00	30.224 
22:45	29.5	29.5	29.5	95	28.2	0	0	---	0.00	30.224 
22:50	29.4	29.4	29.4	95	28.1	0	0	---	0.00	30.221 
22:55	29.4	29.4	29.4	95	28.1	0	0	---	0.00	30.218 
23:00	29.4	29.4	29.4	95	28.1	0	0	---	0.00	30.208 
23:05	29.5	29.5	29.5	95	28.2	0	0	---	0.00	30.208 
23:10	29.5	29.5	29.5	95	28.2	0	0	---	0.00	30.214 
23:15	29.4	29.4	29.4	95	28.1	0	0	---	0.00	30.213 
23:20	29.5	29.5	29.5	95	28.2	0	0	---	0.00	30.206 
23:25	29.5	29.5	29.5	95	28.2	0	0	---	0.00	30.201 
23:30	29.5	29.5	29.5	95	28.2	0	0	---	0.00	30.204 
23:35	29.5	29.5	29.5	95	28.2	0	0	---	0.00	30.207 
23:40	29.4	29.4	29.4	95	28.1	0	0	---	0.00	30.206 
23:45	29.4	29.4	29.4	95	28.1	0	0	---	0.00	30.207 
23:50	29.4	29.4	29.4	95	28.1	0	0	---	0.00	30.207 
23:55	29.4	29.4	29.4	95	28.1	0	0	---	0.00	30.206 

CoCoRaHS
IN-AL-39
A2 Web Hosting
Creative Commons License
GoDaddy
Look for:

loaded 2017-10-20 20:04:26 • last modified 2010-11-18 10:43:29
Privacy PolicyDisclaimer
• wx.awcolley.com is powered by PmWiki v.2002016 •
• all content (unless otherwise noted) © 2017 A W Colley